createdAt,value
2023-01-23T00:00:01.725Z,52.98
2023-01-23T00:03:14.645Z,52.79
2023-01-23T00:06:19.146Z,52.57
2023-01-23T00:09:22.809Z,52.45
2023-01-23T00:12:26.623Z,52.25
2023-01-23T00:15:30.221Z,52.37
2023-01-23T00:18:34.688Z,52.71
2023-01-23T00:21:38.309Z,52.79
2023-01-23T00:24:42.081Z,52.89
2023-01-23T00:27:45.121Z,52.81
2023-01-23T00:30:49.149Z,52.83
2023-01-23T00:33:56.149Z,52.92
2023-01-23T00:37:00.328Z,53.02
2023-01-23T00:40:04.301Z,53.38
2023-01-23T00:43:08.248Z,53.92
2023-01-23T00:46:12.126Z,54.06
2023-01-23T00:49:18.680Z,54.16
2023-01-23T00:52:22.777Z,54.72
2023-01-23T00:55:26.325Z,54.56
2023-01-23T00:58:29.868Z,54.47
2023-01-23T01:01:34.403Z,54.34
2023-01-23T01:04:37.904Z,54.10
2023-01-23T01:07:41.223Z,53.87
2023-01-23T01:10:44.373Z,53.76
2023-01-23T01:13:48.357Z,54.32
2023-01-23T01:16:51.967Z,54.20
2023-01-23T01:19:56.781Z,54.07
2023-01-23T01:23:01.145Z,54.27
2023-01-23T01:26:06.178Z,53.75
2023-01-23T01:29:09.802Z,53.26
2023-01-23T01:32:13.090Z,53.08
2023-01-23T01:35:16.013Z,52.77
2023-01-23T01:38:26.277Z,52.51
2023-01-23T01:41:29.268Z,52.06
2023-01-23T01:44:58.196Z,51.81
2023-01-23T01:48:01.406Z,51.55
2023-01-23T01:51:14.590Z,51.58
2023-01-23T01:54:34.755Z,51.38
2023-01-23T01:57:42.249Z,51.33
2023-01-23T02:00:45.673Z,51.70
2023-01-23T02:03:51.631Z,52.11
2023-01-23T02:06:56.194Z,51.61
2023-01-23T02:10:00.605Z,51.11
2023-01-23T02:13:21.579Z,51.04
2023-01-23T02:16:30.583Z,51.14
2023-01-23T02:20:02.776Z,51.09
2023-01-23T02:23:23.084Z,51.08
2023-01-23T02:26:37.153Z,50.88
2023-01-23T02:29:46.292Z,50.63
2023-01-23T02:32:50.969Z,50.28
2023-01-23T02:35:55.718Z,49.93
2023-01-23T02:39:13.862Z,49.94
2023-01-23T02:42:17.171Z,49.63
2023-01-23T02:45:26.355Z,49.46
2023-01-23T02:48:30.322Z,49.34
2023-01-23T02:51:34.920Z,48.83
2023-01-23T02:54:40.891Z,48.76
2023-01-23T02:57:46.001Z,48.31
2023-01-23T03:00:49.269Z,48.23
2023-01-23T03:03:54.159Z,48.01
2023-01-23T03:06:57.523Z,47.89
2023-01-23T03:10:01.029Z,47.43
2023-01-23T03:13:08.176Z,47.65
2023-01-23T03:16:12.039Z,47.19
2023-01-23T03:19:15.134Z,46.59
2023-01-23T03:22:18.589Z,46.71
2023-01-23T03:25:21.804Z,47.10
2023-01-23T03:28:43.712Z,46.48
2023-01-23T03:31:47.067Z,46.43
2023-01-23T03:34:50.006Z,46.48
2023-01-23T03:37:54.480Z,46.16
2023-01-23T03:41:16.620Z,46.05
2023-01-23T03:44:21.446Z,45.64
2023-01-23T03:47:29.028Z,45.35
2023-01-23T03:50:32.482Z,45.34
2023-01-23T03:53:36.239Z,44.89
2023-01-23T03:56:39.827Z,45.03
2023-01-23T03:59:49.203Z,43.46
2023-01-23T04:02:58.749Z,43.27
2023-01-23T04:06:02.898Z,43.04
2023-01-23T04:09:07.321Z,42.99
2023-01-23T04:12:10.594Z,43.34
2023-01-23T04:15:19.083Z,42.69
2023-01-23T04:18:23.518Z,42.91
2023-01-23T04:21:27.983Z,42.74
2023-01-23T04:24:31.015Z,42.62
2023-01-23T04:27:35.691Z,42.52
2023-01-23T04:30:40.416Z,42.76
2023-01-23T04:33:52.498Z,42.61
2023-01-23T04:36:57.903Z,42.38
2023-01-23T04:40:02.459Z,42.30
2023-01-23T04:43:10.723Z,42.18
2023-01-23T04:46:21.736Z,42.31
2023-01-23T04:49:35.159Z,41.90
2023-01-23T04:52:39.522Z,42.16
2023-01-23T04:55:42.646Z,42.28
2023-01-23T04:58:50.751Z,40.70
2023-01-23T05:01:55.774Z,40.69
2023-01-23T05:05:00.580Z,39.64
2023-01-23T05:08:03.747Z,38.47
2023-01-23T05:11:07.142Z,38.51
2023-01-23T05:14:10.272Z,38.72
2023-01-23T05:17:14.032Z,37.84
2023-01-23T05:20:24.259Z,37.70
2023-01-23T05:23:30.146Z,37.13
2023-01-23T05:26:35.638Z,37.61
2023-01-23T05:29:39.725Z,38.10
2023-01-23T05:32:59.371Z,38.34
2023-01-23T05:36:02.993Z,38.52
2023-01-23T05:39:06.156Z,38.78
2023-01-23T05:42:09.630Z,39.05
2023-01-23T05:45:32.976Z,39.43
2023-01-23T05:48:36.359Z,39.70
2023-01-23T05:51:44.689Z,39.46
2023-01-23T05:54:49.832Z,39.63
2023-01-23T05:57:53.583Z,39.29
2023-01-23T06:01:23.281Z,39.14
2023-01-23T06:04:49.674Z,39.38
2023-01-23T06:08:05.386Z,38.81
2023-01-23T06:11:08.955Z,38.27
2023-01-23T06:14:12.424Z,38.55
2023-01-23T06:17:16.416Z,38.87
2023-01-23T06:20:20.510Z,37.72
2023-01-23T06:23:25.195Z,37.50
2023-01-23T06:26:29.121Z,37.70
2023-01-23T06:29:33.558Z,37.91
2023-01-23T06:32:37.488Z,37.24
2023-01-23T06:35:41.637Z,36.73
2023-01-23T06:38:45.614Z,37.16
2023-01-23T06:41:49.750Z,37.10
2023-01-23T06:44:58.348Z,37.39
2023-01-23T06:48:05.435Z,37.66
2023-01-23T06:51:08.511Z,37.01
2023-01-23T06:54:12.424Z,36.44
2023-01-23T06:57:16.587Z,36.39
2023-01-23T07:00:22.133Z,35.91
2023-01-23T07:03:27.207Z,35.75
2023-01-23T07:06:31.883Z,35.81
2023-01-23T07:09:36.364Z,35.97
2023-01-23T07:12:45.306Z,35.95
2023-01-23T07:15:49.327Z,35.54
2023-01-23T07:18:52.300Z,36.04
2023-01-23T07:21:56.195Z,35.68
2023-01-23T07:24:59.733Z,34.99
2023-01-23T07:28:03.589Z,34.99
2023-01-23T07:31:07.656Z,34.55
2023-01-23T07:34:11.534Z,34.20
2023-01-23T07:37:15.026Z,34.17
2023-01-23T07:40:19.451Z,34.97
2023-01-23T07:43:22.575Z,35.27
2023-01-23T07:46:27.789Z,35.46
2023-01-23T07:49:31.498Z,35.44
2023-01-23T07:52:34.548Z,34.81
2023-01-23T07:55:41.123Z,34.58
2023-01-23T07:58:45.283Z,35.44
2023-01-23T08:01:49.992Z,34.65
2023-01-23T08:04:53.341Z,34.50
2023-01-23T08:08:12.145Z,34.95
2023-01-23T08:11:16.901Z,35.98
2023-01-23T08:14:21.008Z,36.07
2023-01-23T08:17:25.109Z,36.30
2023-01-23T08:20:28.105Z,36.28
2023-01-23T08:23:34.400Z,36.54
2023-01-23T08:26:38.165Z,36.21
2023-01-23T08:29:41.681Z,36.35
2023-01-23T08:32:44.803Z,36.75
2023-01-23T08:35:56.610Z,36.89
2023-01-23T08:39:00.923Z,36.35
2023-01-23T08:42:05.147Z,35.54
2023-01-23T08:45:09.437Z,35.99
2023-01-23T08:48:13.123Z,36.13
2023-01-23T08:51:16.891Z,36.57
2023-01-23T08:54:20.861Z,37.13
2023-01-23T08:57:24.326Z,37.58
2023-01-23T09:00:27.737Z,38.18
2023-01-23T09:03:31.243Z,38.81
2023-01-23T10:47:55.590Z,52.72
2023-01-23T10:50:59.642Z,52.34
2023-01-23T10:54:06.275Z,51.54
2023-01-23T10:57:11.021Z,50.70
2023-01-23T11:00:23.923Z,50.06
2023-01-23T11:03:33.754Z,49.40
2023-01-23T11:06:37.353Z,49.17
2023-01-23T11:09:58.926Z,49.38
2023-01-23T11:13:04.103Z,49.38
2023-01-23T11:16:07.710Z,49.38
2023-01-23T11:19:13.123Z,49.41
2023-01-23T11:22:44.452Z,49.27
2023-01-23T11:25:49.765Z,49.56
2023-01-23T11:28:53.300Z,49.44
2023-01-23T11:32:13.402Z,49.44
2023-01-23T11:35:22.988Z,49.44
2023-01-23T11:38:31.516Z,49.73
2023-01-23T11:41:37.170Z,50.09
2023-01-23T11:44:46.347Z,50.25
2023-01-23T11:48:10.847Z,50.12
2023-01-23T11:51:22.097Z,49.69
2023-01-23T11:54:46.263Z,49.71
2023-01-23T11:58:10.796Z,50.03
2023-01-23T12:01:52.143Z,50.40
2023-01-23T12:05:16.893Z,50.63
2023-01-23T12:08:21.357Z,50.56
2023-01-23T12:11:26.975Z,50.04
2023-01-23T12:14:48.975Z,50.17
2023-01-23T12:21:26.369Z,49.91
2023-01-23T12:24:51.100Z,49.72
2023-01-23T12:28:23.214Z,49.74
2023-01-23T12:31:35.272Z,49.51
2023-01-23T12:35:04.295Z,49.65
2023-01-23T12:38:25.065Z,49.93
2023-01-23T12:41:41.131Z,50.01
2023-01-23T12:44:56.852Z,50.15
2023-01-23T12:48:17.142Z,50.37
2023-01-23T12:51:50.152Z,50.67
2023-01-23T12:55:20.286Z,50.90
2023-01-23T12:58:27.645Z,50.70
2023-01-23T13:01:37.221Z,50.56
2023-01-23T13:04:43.481Z,50.60
2023-01-23T13:08:00.192Z,51.33
2023-01-23T13:11:41.322Z,51.04
2023-01-23T13:15:10.220Z,50.87
2023-01-23T13:18:25.656Z,50.92
2023-01-23T13:21:48.361Z,50.90
2023-01-23T13:25:13.281Z,51.21
2023-01-23T13:28:46.015Z,51.24
2023-01-23T13:31:53.216Z,51.50
2023-01-23T13:34:57.317Z,51.58
2023-01-23T13:38:01.099Z,51.89
2023-01-23T13:41:19.194Z,52.15
2023-01-23T13:44:40.948Z,52.09
2023-01-23T14:22:28.316Z,51.41
2023-01-23T14:25:32.598Z,51.56
2023-01-23T14:28:36.351Z,51.79
2023-01-23T14:31:42.988Z,51.84
2023-01-23T14:34:46.976Z,51.48
2023-01-23T14:37:51.368Z,51.40
2023-01-23T14:40:57.413Z,51.43
2023-01-23T14:44:03.481Z,51.37
2023-01-23T14:47:08.738Z,51.40
2023-01-23T14:50:18.564Z,51.39
2023-01-23T14:53:22.554Z,51.36
2023-01-23T14:56:39.272Z,51.62
2023-01-23T14:59:44.023Z,52.05
2023-01-23T15:02:54.863Z,52.38
2023-01-23T15:06:00.556Z,52.68
2023-01-23T15:09:17.130Z,53.01
2023-01-23T15:12:21.112Z,53.19
2023-01-23T15:15:26.089Z,53.60
2023-01-23T15:18:37.043Z,54.18
2023-01-23T15:21:42.504Z,54.75
2023-01-23T15:24:46.361Z,55.24
2023-01-23T15:27:50.129Z,55.28
2023-01-23T15:30:53.916Z,55.42
2023-01-23T15:34:17.468Z,55.47
2023-01-23T15:37:27.849Z,55.83
2023-01-23T15:40:34.238Z,56.01
2023-01-23T15:43:37.672Z,56.00
2023-01-23T15:46:41.865Z,56.33
2023-01-23T15:49:45.029Z,56.57
2023-01-23T15:52:51.981Z,56.32
2023-01-23T15:55:55.691Z,56.13
2023-01-23T15:59:03.230Z,55.99
2023-01-23T16:02:29.172Z,55.69
2023-01-23T16:05:38.471Z,55.67
2023-01-23T16:08:41.441Z,55.42
2023-01-23T16:11:44.746Z,54.84
2023-01-23T16:14:49.035Z,54.79
2023-01-23T16:17:53.250Z,54.99
2023-01-23T16:20:56.637Z,54.77
2023-01-23T16:24:00.965Z,54.24
2023-01-23T16:27:04.696Z,54.31
2023-01-23T16:30:18.243Z,54.85
2023-01-23T16:33:22.326Z,55.65
2023-01-23T16:36:25.954Z,55.99
2023-01-23T16:39:33.996Z,56.19
2023-01-23T16:42:37.371Z,56.41
2023-01-23T16:45:40.934Z,56.57
2023-01-23T16:48:45.111Z,56.23
2023-01-23T16:51:55.611Z,55.90
2023-01-23T16:54:59.281Z,55.48
2023-01-23T16:58:05.453Z,55.45
2023-01-23T17:01:15.293Z,55.36
2023-01-23T17:04:21.670Z,54.76
2023-01-23T17:07:24.638Z,54.96
2023-01-23T17:10:41.212Z,55.65
2023-01-23T17:13:49.522Z,55.31
2023-01-23T17:16:54.149Z,54.95
2023-01-23T17:19:58.616Z,54.27
2023-01-23T17:23:02.152Z,53.84
2023-01-23T17:26:05.435Z,53.62
2023-01-23T17:29:08.978Z,53.81
2023-01-23T17:32:27.830Z,54.35
2023-01-23T17:35:37.656Z,54.42
2023-01-23T17:38:42.514Z,54.50
2023-01-23T17:41:45.847Z,54.58
2023-01-23T17:44:50.346Z,54.93
2023-01-23T17:47:56.221Z,54.99
2023-01-23T17:51:00.071Z,54.81
2023-01-23T17:54:03.483Z,55.05
2023-01-23T17:57:07.360Z,54.72
2023-01-23T18:00:15.490Z,55.04
2023-01-23T18:03:23.088Z,55.26
2023-01-23T18:06:28.006Z,55.00
2023-01-23T18:09:34.839Z,54.69
2023-01-23T18:12:50.400Z,54.93
2023-01-23T18:16:12.316Z,55.13
2023-01-23T18:19:19.207Z,55.11
2023-01-23T18:22:22.973Z,55.27
2023-01-23T18:25:27.218Z,55.16
2023-01-23T18:28:56.339Z,54.82
2023-01-23T18:32:19.308Z,54.86
2023-01-23T18:35:34.898Z,54.91
2023-01-23T18:38:56.804Z,54.93
2023-01-23T18:42:25.152Z,54.93
2023-01-23T18:45:30.435Z,54.68
2023-01-23T18:48:35.583Z,54.58
2023-01-23T18:52:13.400Z,54.39
2023-01-23T18:55:38.890Z,54.79
2023-01-23T18:59:17.564Z,55.20
2023-01-23T19:02:32.966Z,55.31
2023-01-23T19:05:36.210Z,55.51
2023-01-23T19:08:41.288Z,55.64
2023-01-23T19:11:53.765Z,55.74
2023-01-23T19:15:34.720Z,55.76
2023-01-23T19:18:49.742Z,55.61
2023-01-23T19:21:53.476Z,55.97
2023-01-23T19:24:57.759Z,56.02
2023-01-23T19:28:02.926Z,56.16
2023-01-23T19:31:10.639Z,56.37
2023-01-23T19:34:14.255Z,56.69
2023-01-23T19:37:17.771Z,56.58
2023-01-23T19:40:21.561Z,56.51
2023-01-23T19:43:26.753Z,56.49
2023-01-23T19:46:34.023Z,55.95
2023-01-23T19:49:37.965Z,55.83
2023-01-23T19:52:42.135Z,57.38
2023-01-23T19:55:46.214Z,57.33
2023-01-23T19:58:50.127Z,57.47
2023-01-23T20:01:55.050Z,57.50
2023-01-23T20:04:59.187Z,57.51
2023-01-23T20:08:03.224Z,57.26
2023-01-23T20:11:06.943Z,57.24
2023-01-23T20:14:10.900Z,57.38
2023-01-23T20:17:14.393Z,57.06
2023-01-23T20:20:18.812Z,56.97
2023-01-23T20:23:22.230Z,56.62
2023-01-23T20:26:26.257Z,56.95
2023-01-23T20:29:29.993Z,57.19
2023-01-23T20:32:35.560Z,57.89
2023-01-23T20:35:39.085Z,57.92
2023-01-23T20:38:43.961Z,58.27
2023-01-23T20:41:47.579Z,58.45
2023-01-23T20:44:51.410Z,58.83
2023-01-23T20:47:58.446Z,58.45
2023-01-23T20:51:02.186Z,58.34
2023-01-23T20:54:05.967Z,58.57
2023-01-23T20:57:09.818Z,58.86
2023-01-23T21:00:14.177Z,58.32
2023-01-23T21:03:18.238Z,57.94
2023-01-23T21:06:21.988Z,57.57
2023-01-23T21:09:26.716Z,58.56
2023-01-23T21:12:33.473Z,58.82
2023-01-23T21:15:37.243Z,58.99
2023-01-23T21:18:45.067Z,58.74
2023-01-23T21:21:48.663Z,58.73
2023-01-23T21:24:51.764Z,58.55
2023-01-23T21:27:55.609Z,58.30
2023-01-23T21:30:59.310Z,57.91
2023-01-23T21:34:07.325Z,57.87
2023-01-23T21:37:11.460Z,57.63
2023-01-23T21:40:15.392Z,57.64
2023-01-23T21:43:18.703Z,57.94
2023-01-23T21:46:22.498Z,57.79
2023-01-23T21:49:25.869Z,57.43
2023-01-23T21:52:30.171Z,57.52
2023-01-23T21:55:33.927Z,57.39
2023-01-23T21:58:37.740Z,57.23
2023-01-23T22:01:45.850Z,56.87
2023-01-23T22:04:49.956Z,56.78
2023-01-23T22:07:53.856Z,57.29
2023-01-23T22:10:57.608Z,56.87
2023-01-23T22:14:01.639Z,56.80
2023-01-23T22:17:07.191Z,56.79
2023-01-23T22:20:11.829Z,57.52
2023-01-23T22:23:16.058Z,57.94
2023-01-23T22:26:19.852Z,58.72
2023-01-23T22:29:24.068Z,58.86
2023-01-23T22:32:27.714Z,58.70
2023-01-23T22:35:31.682Z,58.33
2023-01-23T22:38:35.726Z,58.05
2023-01-23T22:41:39.409Z,57.87
2023-01-23T22:44:42.437Z,57.82
2023-01-23T22:47:46.507Z,56.65
2023-01-23T22:50:50.260Z,54.37
2023-01-23T22:53:58.901Z,52.83
2023-01-23T22:57:02.504Z,52.01
2023-01-23T23:00:11.080Z,52.11
2023-01-23T23:03:14.388Z,52.74
2023-01-23T23:06:18.305Z,53.08
2023-01-23T23:09:21.845Z,53.53
2023-01-23T23:12:29.065Z,53.68
2023-01-23T23:15:32.869Z,53.54
2023-01-23T23:18:39.442Z,53.23
2023-01-23T23:21:43.631Z,53.72
2023-01-23T23:24:48.509Z,54.26
2023-01-23T23:27:52.251Z,54.06
2023-01-23T23:30:55.860Z,53.57
2023-01-23T23:34:00.223Z,54.18
2023-01-23T23:37:03.960Z,55.57
2023-01-23T23:40:08.424Z,56.20
2023-01-23T23:43:12.654Z,56.34
2023-01-23T23:46:17.964Z,56.48
2023-01-23T23:49:22.310Z,57.56
2023-01-23T23:52:27.762Z,58.36
2023-01-23T23:55:33.006Z,58.71
2023-01-23T23:58:41.056Z,58.97
